Time;durP1;ratioP1;P1;durP2;ratioP2;P2;SDS_P1;SDS_P2;PMS_P1;PMS_P2;Temp;Humidity;BMP_temperature;BMP_pressure;BME280_temperature;BME280_humidity;BME280_pressure;Samples;Min_cycle;Max_cycle;Signal;HPM_P1;HPM_P2
2022/12/05 00:00:53;;;;;;;32.50;14.37;;;;;;;1.51;88.29;101669.81;5017953;28;20031;-77
2022/12/05 00:03:19;;;;;;;37.13;17.00;;;;;;;1.52;88.04;101672.38;5018722;28;20025;-76
2022/12/05 00:05:45;;;;;;;33.00;14.97;;;;;;;1.50;88.18;101676.59;5019974;28;20483;-76
2022/12/05 00:08:10;;;;;;;31.60;14.93;;;;;;;1.51;88.03;101675.78;5018533;28;20399;-76
2022/12/05 00:10:36;;;;;;;33.03;14.37;;;;;;;1.51;88.18;101673.22;5017450;28;20056;-76
2022/12/05 00:13:01;;;;;;;33.90;15.07;;;;;;;1.52;88.19;101679.22;5017888;28;20026;-76
2022/12/05 00:15:26;;;;;;;29.70;14.10;;;;;;;1.54;88.40;101676.69;5020734;28;20076;-76
2022/12/05 00:17:52;;;;;;;29.73;13.77;;;;;;;1.56;88.37;101673.31;5018749;28;20030;-76
2022/12/05 00:20:17;;;;;;;30.90;14.53;;;;;;;1.57;88.72;101669.94;5017907;28;20387;-77
2022/12/05 00:22:43;;;;;;;30.80;14.27;;;;;;;1.61;88.49;101676.88;5018179;28;20077;-76
2022/12/05 00:25:08;;;;;;;28.73;13.13;;;;;;;1.62;88.38;101675.19;5018583;28;20037;-76
2022/12/05 00:27:34;;;;;;;33.10;14.80;;;;;;;1.61;88.16;101671.75;5018730;28;20052;-76
2022/12/05 00:29:59;;;;;;;31.53;15.13;;;;;;;1.62;88.05;101668.34;5019029;28;21172;-76
2022/12/05 00:32:25;;;;;;;31.13;14.70;;;;;;;1.62;88.48;101665.78;5019323;28;20997;-76
2022/12/05 00:34:50;;;;;;;30.23;14.57;;;;;;;1.62;88.46;101663.22;5019380;28;20067;-76
2022/12/05 00:37:15;;;;;;;30.17;13.77;;;;;;;1.64;88.27;101661.56;5019439;28;20707;-76
2022/12/05 00:39:40;;;;;;;32.00;15.47;;;;;;;1.65;88.12;101657.28;5018620;28;20041;-76
2022/12/05 00:42:06;;;;;;;31.73;15.67;;;;;;;1.65;88.37;101655.63;5018570;28;20547;-76
2022/12/05 00:44:31;;;;;;;31.23;14.80;;;;;;;1.67;88.05;101656.53;5018454;28;20102;-76
2022/12/05 00:46:56;;;;;;;32.23;14.73;;;;;;;1.69;88.01;101653.97;5018392;28;20029;-76
2022/12/05 00:49:21;;;;;;;29.80;13.87;;;;;;;1.69;88.15;101653.97;5019411;28;21001;-76
2022/12/05 00:51:47;;;;;;;32.87;14.73;;;;;;;1.70;88.27;101650.59;5022077;28;20029;-76
2022/12/05 00:54:14;;;;;;;32.87;15.80;;;;;;;1.72;88.11;101668.56;5003614;28;20471;-76
2022/12/05 00:56:40;;;;;;;32.00;15.20;;;;;;;1.74;88.11;101654.97;5023849;28;20033;-76
2022/12/05 00:59:06;;;;;;;35.00;16.10;;;;;;;1.72;88.14;101659.19;5022688;28;20091;-76
2022/12/05 01:01:37;;;;;;;30.83;14.67;;;;;;;1.74;88.25;101661.78;5022360;28;20037;-76
2022/12/05 01:04:10;;;;;;;34.42;15.57;;;;;;;1.74;88.15;101662.66;5023708;28;20053;-76
2022/12/05 01:06:36;;;;;;;35.23;15.27;;;;;;;1.73;88.19;101660.94;5020666;28;20687;-76
2022/12/05 01:09:02;;;;;;;28.97;14.07;;;;;;;1.74;88.08;101656.66;5022180;28;20041;-77
2022/12/05 01:11:28;;;;;;;30.07;15.10;;;;;;;1.75;88.18;101663.50;5020960;28;20064;-76
2022/12/05 01:13:55;;;;;;;29.63;14.20;;;;;;;1.74;88.32;101665.22;5022548;28;20052;-76
2022/12/05 01:16:22;;;;;;;30.70;14.87;;;;;;;1.75;88.08;101666.09;5021984;28;20036;-76
2022/12/05 01:18:47;;;;;;;28.30;13.20;;;;;;;1.76;88.26;101665.25;5020719;28;20065;-77
2022/12/05 01:21:13;;;;;;;31.47;14.23;;;;;;;1.77;88.24;101670.44;5022156;28;20133;-76
2022/12/05 01:23:38;;;;;;;33.97;15.23;;;;;;;1.79;88.29;101670.47;5024019;28;20033;-76
2022/12/05 01:26:06;;;;;;;31.47;14.70;;;;;;;1.79;88.02;101675.59;5022512;28;20033;-76
2022/12/05 01:28:32;;;;;;;34.50;15.60;;;;;;;1.82;88.17;101678.25;5022164;28;20156;-76
2022/12/05 01:30:57;;;;;;;31.27;14.97;;;;;;;1.80;88.17;101673.06;5021238;28;20120;-76
2022/12/05 01:33:23;;;;;;;32.70;14.83;;;;;;;1.82;88.00;101675.69;5019561;28;20076;-76
2022/12/05 01:35:48;;;;;;;32.23;14.93;;;;;;;1.82;88.73;101673.97;5020917;28;20120;-76
2022/12/05 01:38:13;;;;;;;30.43;14.20;;;;;;;1.85;88.65;101673.19;5020123;28;20468;-76
2022/12/05 01:40:39;;;;;;;32.77;14.47;;;;;;;1.86;88.59;101682.63;5020130;28;20029;-76
2022/12/05 01:43:13;;;;;;;28.63;14.20;;;;;;;1.87;88.36;101678.34;5021887;28;20112;-76
2022/12/05 01:45:42;;;;;;;31.13;14.50;;;;;;;1.89;88.21;101690.38;5021381;28;20148;-76
2022/12/05 01:48:16;;;;;;;29.07;14.60;;;;;;;1.89;88.24;101681.81;5021360;28;20485;-76
2022/12/05 01:50:42;;;;;;;32.30;14.90;;;;;;;1.89;88.17;101694.66;5020373;28;20457;-77
2022/12/05 01:53:07;;;;;;;31.33;15.20;;;;;;;1.88;88.32;101701.47;5019750;28;20041;-76
2022/12/05 01:55:34;;;;;;;29.83;14.40;;;;;;;1.89;88.12;101695.50;5021663;28;20072;-76
2022/12/05 01:58:02;;;;;;;29.77;13.80;;;;;;;1.87;88.17;101697.19;5021115;28;20033;-76
2022/12/05 02:00:27;;;;;;;28.67;13.63;;;;;;;1.89;88.44;101702.34;5019522;28;20060;-76
2022/12/05 02:02:59;;;;;;;34.53;14.60;;;;;;;1.89;88.18;101697.22;5019650;28;20041;-76
2022/12/05 02:05:28;;;;;;;30.20;14.40;;;;;;;1.90;88.31;101696.38;5021582;28;20033;-76
2022/12/05 02:07:57;;;;;;;30.70;14.63;;;;;;;1.90;88.45;101699.81;5019229;28;20040;-76
2022/12/05 02:10:23;;;;;;;30.83;14.93;;;;;;;1.90;88.15;101689.53;5020243;28;20111;-76
2022/12/05 02:12:49;;;;;;;30.70;14.03;;;;;;;1.92;88.48;101692.16;5019200;28;20124;-76
2022/12/05 02:15:34;;;;;;;32.27;14.90;;;;;;;1.92;88.55;101695.56;5021095;28;20041;-76
2022/12/05 02:18:15;;;;;;;32.30;13.93;;;;;;;1.93;88.41;101705.00;5018642;28;20025;-77
2022/12/05 02:21:04;;;;;;;31.90;14.60;;;;;;;1.95;88.70;101694.81;5021640;28;20055;-76
2022/12/05 02:23:51;;;;;;;30.97;14.30;;;;;;;1.96;88.50;101697.41;5018272;28;20080;-76
2022/12/05 02:26:35;;;;;;;30.57;15.00;;;;;;;1.96;88.38;101697.41;5022160;28;20129;-76
2022/12/05 02:29:33;;;;;;;28.53;13.17;;;;;;;1.96;88.31;101692.25;4984934;28;1020061;-76
2022/12/05 02:32:20;;;;;;;29.37;13.30;;;;;;;1.97;88.50;101701.69;5020336;28;20041;-76
2022/12/05 02:35:03;;;;;;;31.23;13.73;;;;;;;1.96;88.29;101697.41;5020943;28;20105;-76
2022/12/05 02:37:49;;;;;;;29.73;13.87;;;;;;;1.97;88.38;101696.56;5020618;28;20209;-76
2022/12/05 02:40:28;;;;;;;29.70;13.17;;;;;;;1.97;88.21;101691.44;5020393;28;20055;-76
2022/12/05 02:43:07;;;;;;;32.07;14.23;;;;;;;1.97;88.45;101690.53;5020161;28;20550;-76
2022/12/05 02:45:37;;;;;;;30.63;14.17;;;;;;;1.99;88.60;101693.16;5019448;28;20140;-76
2022/12/05 02:48:04;;;;;;;31.57;14.77;;;;;;;1.99;88.60;101699.16;5020581;28;20087;-76
2022/12/05 02:50:36;;;;;;;32.90;14.80;;;;;;;1.99;88.60;101694.03;5019657;28;20214;-76
2022/12/05 02:53:10;;;;;;;35.07;15.07;;;;;;;2.01;88.48;101699.22;5020637;28;20041;-76
2022/12/05 02:55:37;;;;;;;33.20;15.43;;;;;;;2.00;88.42;101700.03;5024171;28;20479;-76
2022/12/05 02:58:07;;;;;;;34.40;15.00;;;;;;;2.00;88.59;101700.03;5020745;28;20091;-76
2022/12/05 03:00:37;;;;;;;34.20;14.40;;;;;;;2.00;88.57;101700.03;5020955;28;20111;-76
2022/12/05 03:03:12;;;;;;;34.23;15.10;;;;;;;1.99;88.69;101711.97;5021042;28;20404;-76
2022/12/05 03:06:01;;;;;;;34.30;14.60;;;;;;;2.01;89.00;101696.63;5020051;28;20232;-76
2022/12/05 03:08:32;;;;;;;30.20;14.53;;;;;;;2.00;88.81;101700.03;5019737;28;20488;-76
2022/12/05 03:11:00;;;;;;;28.40;14.35;;;;;;;2.01;88.45;101706.91;5020265;28;20076;-76
2022/12/05 03:13:30;;;;;;;31.73;15.40;;;;;;;2.00;88.89;101700.88;5020112;28;20033;-76
2022/12/05 03:16:01;;;;;;;29.43;13.83;;;;;;;2.01;88.85;101696.63;5019980;28;20033;-76
2022/12/05 03:18:37;;;;;;;32.83;14.88;;;;;;;2.00;89.08;101700.03;5021298;28;20033;-76
2022/12/05 03:21:14;;;;;;;29.73;14.43;;;;;;;1.99;88.86;101698.31;5016949;28;20034;-76
2022/12/05 03:23:49;;;;;;;32.50;14.70;;;;;;;1.97;89.11;101696.56;5020745;28;20373;-76
2022/12/05 03:26:50;;;;;;;30.93;13.30;;;;;;;2.00;89.13;101697.47;5019610;28;20041;-76
2022/12/05 03:29:42;;;;;;;30.63;13.80;;;;;;;2.00;89.39;101689.78;5020192;28;20053;-76
2022/12/05 03:32:35;;;;;;;29.00;13.13;;;;;;;2.02;89.47;101693.25;5008985;28;20053;-77
2022/12/05 03:35:11;;;;;;;32.37;14.47;;;;;;;2.03;89.36;101692.41;5019387;28;20741;-76
2022/12/05 03:37:59;;;;;;;29.60;14.30;;;;;;;2.03;89.60;101692.41;5022106;28;20022;-77
2022/12/05 03:40:59;;;;;;;29.27;13.43;;;;;;;2.05;89.08;101696.75;5018827;28;20044;-76
2022/12/05 03:43:47;;;;;;;32.80;15.00;;;;;;;2.03;89.31;101689.84;5019399;28;20488;-76
2022/12/05 03:46:37;;;;;;;31.07;14.30;;;;;;;2.03;89.30;101685.56;5019804;28;20029;-76
2022/12/05 03:49:23;;;;;;;31.47;14.60;;;;;;;2.03;89.79;101689.84;5018711;28;20025;-76
2022/12/05 03:51:57;;;;;;;31.43;15.17;;;;;;;2.01;89.58;101692.34;5019182;28;20033;-76
2022/12/05 03:54:27;;;;;;;33.20;15.07;;;;;;;2.02;89.70;101688.13;5021857;28;20025;-76
2022/12/05 03:57:18;;;;;;;29.60;14.47;;;;;;;2.01;89.77;101688.94;5019338;28;20150;-76
2022/12/05 03:59:51;;;;;;;29.57;12.70;;;;;;;2.02;89.67;101693.25;5017692;28;20029;-76
2022/12/05 04:02:44;;;;;;;29.50;14.20;;;;;;;2.00;90.03;101689.78;5020997;28;20472;-76
2022/12/05 04:05:22;;;;;;;31.70;14.60;;;;;;;2.00;90.01;101693.19;5018994;28;21609;-76
2022/12/05 04:07:54;;;;;;;30.83;13.83;;;;;;;2.00;90.06;101694.91;5018493;28;20033;-76
2022/12/05 04:10:25;;;;;;;30.97;13.57;;;;;;;1.99;90.30;101690.59;5018282;28;20037;-76
2022/12/05 04:12:54;;;;;;;31.00;14.27;;;;;;;2.00;90.11;101695.75;5020397;28;20060;-76
2022/12/05 04:15:27;;;;;;;31.60;14.43;;;;;;;2.00;90.39;101694.91;5018995;28;20124;-76
2022/12/05 04:17:57;;;;;;;30.13;14.47;;;;;;;2.02;90.33;101703.50;5019339;28;20034;-76
2022/12/05 04:23:15;;;;;;;28.52;14.10;;;;;;;2.02;90.43;101701.78;5020014;28;20138;-76
2022/12/05 04:26:06;;;;;;;29.67;13.90;;;;;;;2.03;90.44;101703.53;5021364;28;20033;-76
2022/12/05 04:28:45;;;;;;;29.53;14.37;;;;;;;2.04;90.58;101704.41;5021551;28;20404;-76
2022/12/05 04:31:23;;;;;;;29.30;14.00;;;;;;;2.04;90.51;101712.13;5024335;28;20037;-76
2022/12/05 04:33:54;;;;;;;30.73;14.30;;;;;;;2.02;90.72;101709.50;5025481;28;20116;-76
2022/12/05 04:36:30;;;;;;;28.63;13.63;;;;;;;2.05;90.69;101703.59;5023503;28;20037;-76
2022/12/05 04:39:09;;;;;;;31.67;14.20;;;;;;;2.06;90.95;101710.44;5023026;28;20041;-77
2022/12/05 04:41:44;;;;;;;27.13;13.07;;;;;;;2.06;90.85;101708.75;5025864;28;20039;-77
2022/12/05 04:44:15;;;;;;;33.53;14.97;;;;;;;2.06;90.80;101710.44;5021869;28;20052;-76
2022/12/05 04:46:43;;;;;;;31.47;14.07;;;;;;;2.07;90.79;101712.16;5023815;28;20033;-77
2022/12/05 04:49:14;;;;;;;34.57;15.03;;;;;;;2.06;90.42;101706.19;5023331;28;20037;-76
2022/12/05 04:51:41;;;;;;;34.72;15.50;;;;;;;2.03;90.64;101712.94;5024678;28;20040;-77
2022/12/05 04:54:18;;;;;;;31.67;14.17;;;;;;;2.02;90.93;101706.06;5021963;28;20059;-76
2022/12/05 04:56:47;;;;;;;32.30;14.83;;;;;;;2.01;90.90;101704.34;5023133;28;20030;-76
2022/12/05 04:59:13;;;;;;;33.27;14.70;;;;;;;2.00;91.03;101710.31;5023741;28;20473;-76
2022/12/05 05:01:50;;;;;;;31.63;14.07;;;;;;;2.00;91.17;101715.44;5022302;28;20044;-76
2022/12/05 05:04:24;;;;;;;29.13;14.33;;;;;;;2.01;91.25;101714.59;5022956;28;20057;-76
2022/12/05 05:06:49;;;;;;;31.80;14.43;;;;;;;2.02;91.11;101708.66;5022024;28;20079;-77
2022/12/05 05:09:14;;;;;;;29.90;13.23;;;;;;;2.03;91.37;101710.38;5005735;28;20021;-76
2022/12/05 05:11:40;;;;;;;33.27;14.00;;;;;;;2.03;91.55;101712.94;5022319;28;20159;-76
2022/12/05 05:14:05;;;;;;;29.13;13.93;;;;;;;2.02;91.67;101708.66;5021988;28;20068;-76
2022/12/05 05:16:41;;;;;;;30.50;13.57;;;;;;;2.03;91.81;101710.38;5021770;28;20037;-76
2022/12/05 05:19:08;;;;;;;30.63;13.10;;;;;;;2.04;92.15;101728.38;5023792;28;20053;-76
2022/12/05 05:21:38;;;;;;;28.77;13.53;;;;;;;2.05;91.84;101721.56;5021025;28;20029;-76
2022/12/05 05:24:05;;;;;;;28.00;13.55;;;;;;;2.06;91.56;101726.72;5024124;28;20018;-76
2022/12/05 05:26:34;;;;;;;27.83;12.17;;;;;;;2.08;91.92;101726.72;5022179;28;20037;-77
2022/12/05 05:29:00;;;;;;;27.40;12.47;;;;;;;2.08;91.84;101719.91;5023617;28;20532;-76
2022/12/05 05:31:25;;;;;;;29.03;13.57;;;;;;;2.09;91.78;101715.63;5020985;28;20117;-76
2022/12/05 05:33:53;;;;;;;26.93;12.87;;;;;;;2.08;91.58;101719.91;5022739;28;20037;-76
2022/12/05 05:36:20;;;;;;;28.13;12.53;;;;;;;2.09;92.10;101728.47;5020857;28;20519;-76
2022/12/05 05:38:48;;;;;;;27.17;13.27;;;;;;;2.10;92.11;101723.38;5022157;28;20063;-77
2022/12/05 05:41:17;;;;;;;27.53;12.70;;;;;;;2.12;91.96;101726.88;5002919;28;20029;-76
2022/12/05 05:43:43;;;;;;;25.70;12.37;;;;;;;2.13;92.11;101730.28;5023314;28;20447;-76
2022/12/05 05:46:09;;;;;;;26.73;12.40;;;;;;;2.13;91.94;101727.72;5020996;28;20036;-76
2022/12/05 05:48:35;;;;;;;26.23;13.13;;;;;;;2.16;91.92;101725.22;5021398;28;20037;-76
2022/12/05 05:51:01;;;;;;;28.03;12.80;;;;;;;2.16;91.59;101722.66;5023059;28;20037;-77
2022/12/05 05:53:27;;;;;;;25.57;12.10;;;;;;;2.17;91.55;101721.84;5022425;28;20153;-77
2022/12/05 05:55:52;;;;;;;27.13;12.87;;;;;;;2.18;91.77;101720.13;5022622;28;20729;-76
2022/12/05 05:58:17;;;;;;;25.87;12.43;;;;;;;2.18;91.92;101723.56;5023571;28;20029;-76
2022/12/05 06:00:42;;;;;;;25.97;12.10;;;;;;;2.19;92.03;101725.31;5021856;28;20392;-77
2022/12/05 06:03:08;;;;;;;25.03;12.20;;;;;;;2.20;92.14;101724.47;5020232;28;20044;-77
2022/12/05 06:05:33;;;;;;;24.83;12.43;;;;;;;2.21;92.12;101731.34;5019651;28;20671;-77
2022/12/05 06:07:59;;;;;;;24.80;12.33;;;;;;;2.22;92.17;101730.50;5020145;28;20125;-77
2022/12/05 06:10:24;;;;;;;24.33;12.00;;;;;;;2.25;92.16;101730.56;5020515;28;20056;-76
2022/12/05 06:12:49;;;;;;;23.23;11.37;;;;;;;2.27;92.11;101728.06;5022792;28;21117;-76
2022/12/05 06:15:14;;;;;;;22.30;11.27;;;;;;;2.28;92.05;101737.50;5017018;28;20033;-77
2022/12/05 06:17:40;;;;;;;23.73;11.73;;;;;;;2.27;92.32;101735.75;5018487;28;20428;-77
2022/12/05 06:20:06;;;;;;;25.00;11.53;;;;;;;2.28;92.07;101740.91;5019075;28;20064;-76
2022/12/05 06:22:31;;;;;;;21.90;11.73;;;;;;;2.27;91.93;101741.75;5021073;28;20029;-77
2022/12/05 06:24:57;;;;;;;24.83;12.23;;;;;;;2.30;91.89;101745.22;5019272;28;20476;-77
2022/12/05 06:27:23;;;;;;;25.20;12.00;;;;;;;2.29;91.85;101744.38;5018882;28;20040;-77
2022/12/05 06:29:48;;;;;;;25.30;11.53;;;;;;;2.28;92.38;101740.91;5018234;28;20033;-77
2022/12/05 06:32:13;;;;;;;21.70;11.23;;;;;;;2.28;92.08;101742.63;5020805;28;20490;-77
2022/12/05 06:34:39;;;;;;;23.80;11.17;;;;;;;2.28;92.03;101748.63;5014818;28;20060;-77
2022/12/05 06:37:04;;;;;;;23.50;10.83;;;;;;;2.28;92.09;101748.63;5019113;28;21051;-77
2022/12/05 06:39:29;;;;;;;22.33;11.60;;;;;;;2.27;92.08;101741.75;5021456;28;20052;-77
2022/12/05 06:41:55;;;;;;;24.23;11.43;;;;;;;2.30;92.27;101740.06;5023500;28;20033;-77
2022/12/05 06:44:20;;;;;;;24.33;11.50;;;;;;;2.31;92.14;101741.81;5021138;28;20140;-76
2022/12/05 06:46:46;;;;;;;24.47;11.77;;;;;;;2.31;92.22;101745.25;5019949;28;20029;-77
2022/12/05 06:49:12;;;;;;;22.90;11.70;;;;;;;2.32;92.21;101743.56;5020121;28;20036;-77
2022/12/05 06:51:37;;;;;;;22.60;11.20;;;;;;;2.33;92.14;101738.44;5022072;28;20037;-77
2022/12/05 06:54:02;;;;;;;22.57;11.77;;;;;;;2.33;92.14;101741.00;5022916;28;20084;-76
2022/12/05 06:56:28;;;;;;;22.23;10.57;;;;;;;2.33;92.41;101745.28;5021842;28;20043;-77
2022/12/05 06:58:54;;;;;;;21.73;10.87;;;;;;;2.35;92.42;101748.75;5022575;28;20091;-76
2022/12/05 07:04:11;;;;;;;21.43;10.77;;;;;;;2.37;92.31;101752.25;5031377;28;20132;-76
2022/12/05 07:06:38;;;;;;;20.10;10.33;;;;;;;2.38;92.48;101759.97;5032440;28;20472;-77
2022/12/05 07:09:04;;;;;;;22.23;11.37;;;;;;;2.38;92.21;101754.81;5033278;28;20047;-76
2022/12/05 07:11:29;;;;;;;22.63;11.23;;;;;;;2.39;92.31;101760.84;5029715;28;20369;-77
2022/12/05 07:13:55;;;;;;;20.00;10.53;;;;;;;2.39;92.83;101766.84;5026669;28;20029;-77
2022/12/05 07:16:20;;;;;;;22.33;11.43;;;;;;;2.39;92.45;101768.56;5017616;28;20393;-77
2022/12/05 07:18:46;;;;;;;20.23;11.10;;;;;;;2.41;92.59;101766.88;5026592;28;20017;-76
2022/12/05 07:21:13;;;;;;;21.70;11.20;;;;;;;2.39;92.53;101771.97;5026900;28;20053;-76
2022/12/05 07:23:40;;;;;;;21.83;10.67;;;;;;;2.42;92.87;101776.31;5033325;28;20055;-77
2022/12/05 07:26:11;;;;;;;22.07;11.13;;;;;;;2.43;92.99;101778.03;5030291;28;20018;-77
2022/12/05 07:28:36;;;;;;;22.15;11.35;;;;;;;2.44;92.56;101779.78;5029862;28;20052;-77
2022/12/05 07:31:04;;;;;;;22.60;10.83;;;;;;;2.44;92.71;101779.78;5032629;28;20108;-77
2022/12/05 07:33:29;;;;;;;21.50;11.00;;;;;;;2.45;93.03;101788.38;5022560;28;20029;-77
2022/12/05 07:36:03;;;;;;;20.40;10.57;;;;;;;2.46;93.10;101779.84;5024060;28;20029;-76
2022/12/05 07:38:28;;;;;;;20.80;11.17;;;;;;;2.46;92.60;101780.69;5029753;28;20380;-76
2022/12/05 07:40:54;;;;;;;20.67;10.50;;;;;;;2.46;92.92;101782.41;5029202;28;20030;-77
2022/12/05 07:43:19;;;;;;;20.40;10.33;;;;;;;2.50;93.07;101779.03;5026991;28;20100;-77
2022/12/05 07:45:44;;;;;;;20.53;10.67;;;;;;;2.50;92.74;101782.50;5029373;28;20027;-76
2022/12/05 07:48:10;;;;;;;20.37;10.43;;;;;;;2.50;92.93;101787.63;5031297;28;20044;-77
2022/12/05 07:50:36;;;;;;;19.63;10.43;;;;;;;2.52;93.04;101788.53;5031682;28;20025;-77
2022/12/05 07:53:01;;;;;;;21.37;10.13;;;;;;;2.53;93.05;101790.28;5029654;28;20029;-76
2022/12/05 07:55:26;;;;;;;22.50;10.33;;;;;;;2.54;92.93;101789.44;5032158;28;20060;-76
2022/12/05 07:57:51;;;;;;;20.20;10.33;;;;;;;2.55;92.98;101787.72;5032132;28;20014;-76
2022/12/05 08:00:17;;;;;;;21.60;10.60;;;;;;;2.54;93.17;101794.59;5029162;28;22364;-76
2022/12/05 08:02:43;;;;;;;19.77;9.80;;;;;;;2.54;93.03;101792.03;5031384;28;20029;-76
2022/12/05 08:05:08;;;;;;;21.17;10.50;;;;;;;2.54;93.04;101797.16;5032023;28;20041;-76
2022/12/05 08:07:33;;;;;;;21.97;10.63;;;;;;;2.55;93.36;101798.91;5031206;28;20053;-77
2022/12/05 08:09:58;;;;;;;22.43;11.30;;;;;;;2.57;92.74;101804.91;5030665;28;20105;-77
2022/12/05 08:12:24;;;;;;;24.03;11.07;;;;;;;2.57;92.88;101812.63;5022970;28;20029;-77
2022/12/05 08:14:49;;;;;;;22.67;10.63;;;;;;;2.57;92.63;101817.75;5031991;28;20025;-77
2022/12/05 08:17:14;;;;;;;21.50;9.90;;;;;;;2.60;93.05;101821.22;5030262;28;20117;-77
2022/12/05 08:19:39;;;;;;;20.13;10.40;;;;;;;2.60;93.15;101821.22;5031290;28;20017;-77
2022/12/05 08:22:05;;;;;;;19.33;9.87;;;;;;;2.62;93.17;101817.88;5029841;28;20029;-77
2022/12/05 08:24:30;;;;;;;16.97;9.43;;;;;;;2.63;93.09;101824.75;5030838;28;20472;-76
2022/12/05 08:26:56;;;;;;;18.27;9.67;;;;;;;2.63;92.73;101824.75;5030910;28;20025;-76
2022/12/05 08:29:21;;;;;;;21.17;10.70;;;;;;;2.65;93.11;101829.91;5031489;28;20112;-76
2022/12/05 08:31:49;;;;;;;20.97;10.50;;;;;;;2.65;93.17;101827.34;5032508;28;20045;-77
2022/12/05 08:34:16;;;;;;;21.50;10.27;;;;;;;2.68;93.82;101840.28;5031826;28;20052;-76
2022/12/05 08:36:42;;;;;;;20.60;10.50;;;;;;;2.68;93.25;101835.13;5028511;28;20036;-76
2022/12/05 08:39:13;;;;;;;19.33;10.27;;;;;;;2.67;93.20;101828.25;5020796;28;20033;-76
2022/12/05 08:41:38;;;;;;;18.60;9.67;;;;;;;2.68;93.28;101837.69;5031051;28;20484;-77
2022/12/05 08:44:05;;;;;;;19.73;10.40;;;;;;;2.70;93.26;101843.75;5014664;28;20043;-77
2022/12/05 08:46:31;;;;;;;18.77;9.80;;;;;;;2.71;93.54;101840.34;5030514;28;20033;-77
2022/12/05 08:48:57;;;;;;;19.90;10.67;;;;;;;2.71;93.60;101833.50;5020689;28;20109;-77
2022/12/05 08:51:22;;;;;;;19.03;10.07;;;;;;;2.72;93.62;101835.22;5029625;28;20443;-77
2022/12/05 08:53:47;;;;;;;18.97;9.90;;;;;;;2.74;93.24;101835.25;5027278;28;20480;-77
2022/12/05 08:56:13;;;;;;;20.00;9.90;;;;;;;2.74;93.18;101840.41;5027155;28;20029;-77
2022/12/05 08:58:39;;;;;;;21.27;10.77;;;;;;;2.74;93.28;101840.41;5026639;28;20017;-77
2022/12/05 09:01:10;;;;;;;20.67;9.97;;;;;;;2.73;93.33;101838.69;5028462;28;20037;-76
2022/12/05 09:03:36;;;;;;;20.48;10.48;;;;;;;2.73;93.19;101847.25;5025324;28;20525;-77
2022/12/05 09:06:16;;;;;;;19.20;10.27;;;;;;;2.75;93.75;101852.41;5026041;28;20026;-76
2022/12/05 09:08:42;;;;;;;19.17;9.90;;;;;;;2.76;93.56;101853.28;5025120;28;20041;-76
2022/12/05 09:11:30;;;;;;;19.53;9.90;;;;;;;2.75;93.49;101856.69;5028542;28;20040;-76
2022/12/05 09:13:57;;;;;;;18.93;10.10;;;;;;;2.74;93.28;101855.81;5026866;28;20036;-76
2022/12/05 09:16:28;;;;;;;17.40;9.93;;;;;;;2.74;93.31;101860.94;5030115;28;20559;-76
2022/12/05 09:18:55;;;;;;;21.23;10.35;;;;;;;2.73;93.22;101860.09;5029693;28;20021;-76
2022/12/05 09:21:25;;;;;;;20.37;10.50;;;;;;;2.73;93.17;101864.38;5030838;28;20025;-76
2022/12/05 09:23:51;;;;;;;18.23;9.93;;;;;;;2.72;93.26;101866.06;5031339;28;20441;-77
2022/12/05 09:26:20;;;;;;;16.87;9.10;;;;;;;2.72;93.22;101862.66;5028978;28;20025;-76
2022/12/05 09:28:46;;;;;;;17.40;9.43;;;;;;;2.73;93.20;101870.38;5038856;28;20127;-76
2022/12/05 09:31:14;;;;;;;17.37;9.03;;;;;;;2.75;93.34;101874.69;5043869;28;20112;-77
2022/12/05 09:33:39;;;;;;;15.37;8.57;;;;;;;2.76;93.21;101869.56;5030373;28;20040;-76
2022/12/05 09:36:07;;;;;;;16.60;8.97;;;;;;;2.76;93.55;101882.41;5026629;28;20021;-77
2022/12/05 09:38:33;;;;;;;15.07;8.70;;;;;;;2.77;93.13;101873.88;5011936;28;20024;-77
2022/12/05 09:41:04;;;;;;;15.83;8.07;;;;;;;2.76;93.33;101879.84;5038109;28;20025;-77
2022/12/05 09:43:44;;;;;;;15.25;8.27;;;;;;;2.75;92.90;101880.69;5025953;28;20026;-77
2022/12/05 09:46:23;;;;;;;15.57;7.90;;;;;;;2.73;92.67;101885.78;5028976;28;20429;-77
2022/12/05 09:48:50;;;;;;;14.23;7.17;;;;;;;2.72;92.55;101890.91;5028708;28;20048;-77
2022/12/05 09:51:15;;;;;;;13.13;7.40;;;;;;;2.70;92.44;101877.16;5029010;28;20025;-77
2022/12/05 09:53:43;;;;;;;11.33;6.87;;;;;;;2.71;92.18;101887.44;5028127;28;20037;-77
2022/12/05 09:56:08;;;;;;;14.77;7.20;;;;;;;2.70;92.10;101890.00;5029834;28;20041;-76
2022/12/05 09:58:52;;;;;;;11.17;6.70;;;;;;;2.69;92.10;101886.53;5025997;28;20397;-76
2022/12/05 10:01:42;;;;;;;14.00;7.13;;;;;;;2.71;92.27;101884.03;5025424;28;20037;-76
2022/12/05 10:04:28;;;;;;;11.23;6.40;;;;;;;2.71;92.30;101881.47;5027913;28;20060;-77
2022/12/05 10:07:06;;;;;;;11.17;6.40;;;;;;;2.72;91.91;101884.06;5027015;28;20583;-76
2022/12/05 10:09:53;;;;;;;13.60;6.47;;;;;;;2.72;91.87;101893.47;5028596;28;20064;-76
2022/12/05 10:12:36;;;;;;;10.57;6.07;;;;;;;2.74;91.97;101886.66;5028113;28;20029;-76
2022/12/05 10:15:12;;;;;;;11.23;6.27;;;;;;;2.75;91.87;101882.41;5029398;28;20235;-77
2022/12/05 10:17:41;;;;;;;11.70;6.33;;;;;;;2.74;91.99;101876.38;5026008;28;20045;-77
2022/12/05 10:20:15;;;;;;;9.83;5.77;;;;;;;2.75;91.56;101883.25;5025352;28;20017;-76
2022/12/05 10:22:51;;;;;;;11.97;6.57;;;;;;;2.75;91.81;101883.25;5026078;28;20651;-76
2022/12/05 10:25:20;;;;;;;10.07;5.97;;;;;;;2.74;91.73;101881.50;5027597;28;20254;-76
2022/12/05 10:27:51;;;;;;;11.93;6.80;;;;;;;2.77;92.00;101880.72;5024499;28;20363;-76
2022/12/05 10:30:19;;;;;;;;;;;;;;;2.81;91.39;101883.41;5029491;28;20036;-77
2022/12/05 10:32:52;;;;;;;10.20;5.93;;;;;;;2.79;91.77;101886.78;5026992;28;19921;-76
2022/12/05 10:35:22;;;;;;;9.57;5.73;;;;;;;2.79;91.94;101879.91;5026203;28;20068;-76
2022/12/05 10:37:50;;;;;;;9.53;5.60;;;;;;;2.81;91.76;101878.25;5008901;28;20036;-76
2022/12/05 10:40:16;;;;;;;11.40;6.43;;;;;;;2.81;91.86;101882.53;5028440;28;20107;-76
2022/12/05 10:42:42;;;;;;;9.77;5.87;;;;;;;2.80;91.76;101886.81;5026409;28;20157;-76
2022/12/05 10:45:15;;;;;;;9.97;6.40;;;;;;;2.82;91.80;101887.72;5027520;28;20106;-76
2022/12/05 10:47:41;;;;;;;9.27;5.80;;;;;;;2.83;92.04;101883.44;5026774;28;20029;-76
2022/12/05 10:50:20;;;;;;;11.03;6.60;;;;;;;2.84;91.83;101883.47;5026599;28;20033;-76
2022/12/05 10:52:46;;;;;;;11.27;6.47;;;;;;;2.85;91.69;101890.34;5026457;28;20037;-76
2022/12/05 10:55:15;;;;;;;10.83;6.23;;;;;;;2.85;91.53;101889.47;5023552;28;20037;-77
2022/12/05 10:57:40;;;;;;;10.90;6.87;;;;;;;2.83;91.62;101889.44;5026134;28;20017;-77
2022/12/05 11:00:14;;;;;;;11.80;6.67;;;;;;;2.84;91.54;101892.88;5024139;28;20510;-76
2022/12/05 11:02:41;;;;;;;10.93;6.70;;;;;;;2.83;91.57;101892.03;5025272;28;20029;-77
2022/12/05 11:05:07;;;;;;;10.50;6.43;;;;;;;2.84;91.35;101888.63;5026373;28;20108;-77
2022/12/05 11:07:44;;;;;;;9.60;5.97;;;;;;;2.86;91.42;101884.38;5025533;28;20051;-76
2022/12/05 11:10:22;;;;;;;10.17;6.43;;;;;;;2.87;91.78;101874.97;5026364;28;20078;-76
2022/12/05 11:12:47;;;;;;;10.53;5.87;;;;;;;2.88;91.46;101877.59;5026067;28;20403;-76
2022/12/05 11:15:18;;;;;;;9.50;5.77;;;;;;;2.91;91.85;101873.31;5025183;28;20111;-77
2022/12/05 11:17:44;;;;;;;8.67;5.23;;;;;;;2.93;91.51;101867.41;5025986;28;20037;-76
2022/12/05 11:20:18;;;;;;;9.50;5.53;;;;;;;2.94;91.62;101861.44;5023093;28;20029;-76
2022/12/05 11:22:46;;;;;;;8.93;5.30;;;;;;;2.95;91.53;101864.84;5025287;28;20104;-76
2022/12/05 11:25:32;;;;;;;8.27;5.37;;;;;;;2.97;91.35;101863.19;5025084;28;20369;-77
2022/12/05 11:28:19;;;;;;;7.70;5.03;;;;;;;2.94;90.89;101864.00;5023220;28;20095;-77
2022/12/05 11:31:10;;;;;;;8.37;5.37;;;;;;;2.96;91.03;101856.31;5026512;28;20033;-76
2022/12/05 11:33:36;;;;;;;8.05;5.15;;;;;;;2.96;90.86;101864.91;5025874;28;20159;-77
2022/12/05 11:36:19;;;;;;;8.37;5.30;;;;;;;2.96;90.70;101867.47;5024106;28;20104;-77
2022/12/05 11:38:45;;;;;;;8.50;4.83;;;;;;;2.96;90.81;101869.16;5026806;28;20036;-76